Time;durP1;ratioP1;P1;durP2;ratioP2;P2;SDS_P1;SDS_P2;PMS_P1;PMS_P2;Temp;Humidity;BMP_temperature;BMP_pressure;BME280_temperature;BME280_humidity;BME280_pressure;Samples;Min_cycle;Max_cycle;Signal;HPM_P1;HPM_P2
2021/05/18 00:11:46;;;;;;;13.93;9.90;;;;;;;10.89;89.74;97823.80;4335984;80;21586;-82
2021/05/18 00:17:51;;;;;;;18.50;9.30;;;;;;;10.89;89.92;97830.65;4328819;80;21140;-83
2021/05/18 00:24:06;;;;;;;10.08;7.65;;;;;;;10.86;90.02;97837.52;4349382;80;21615;-83
2021/05/18 00:30:16;;;;;;;11.93;8.78;;;;;;;10.84;90.00;97842.03;4431035;79;21033;-84
2021/05/18 00:36:20;;;;;;;16.07;7.50;;;;;;;10.84;89.89;97836.55;4305321;79;21112;-83
2021/05/18 00:42:23;;;;;;;15.00;7.60;;;;;;;10.77;89.97;97843.44;4336940;79;21097;-86
2021/05/18 00:48:56;;;;;;;12.30;6.83;;;;;;;10.70;90.06;97843.52;4382041;77;21080;-84
2021/05/18 01:08:42;;;;;;;11.00;6.70;;;;;;;10.56;90.18;97843.63;4415287;79;21673;-83
2021/05/18 01:14:47;;;;;;;11.30;6.67;;;;;;;10.50;90.28;97850.70;4388155;80;21614;-83
2021/05/18 01:21:00;;;;;;;10.68;6.58;;;;;;;10.48;90.27;97850.31;4429126;77;21114;-82
2021/05/18 01:27:18;;;;;;;11.50;6.83;;;;;;;10.49;90.37;97862.05;4384739;78;21138;-82
2021/05/18 01:33:28;;;;;;;11.85;7.08;;;;;;;10.49;90.32;97861.44;4485615;77;21592;-82
2021/05/18 01:46:05;;;;;;;9.38;6.30;;;;;;;10.39;90.38;97862.88;4511346;77;23484;-82
2021/05/18 01:52:18;;;;;;;14.98;6.30;;;;;;;10.34;90.43;97866.82;4446563;77;21177;-82
2021/05/18 01:58:44;;;;;;;;;;;;;;;;;;;;;
2021/05/18 02:04:56;;;;;;;17.98;6.90;;;;;;;10.31;90.70;97881.87;4488457;77;21633;-81
2021/05/18 02:11:16;;;;;;;10.93;5.92;;;;;;;10.28;90.87;97884.05;4569236;76;21037;-82
2021/05/18 02:17:39;;;;;;;13.35;6.90;;;;;;;10.25;90.79;97895.21;4518113;77;21113;-82
2021/05/18 02:30:08;;;;;;;12.43;6.55;;;;;;;10.24;91.07;97901.84;4201114;82;21102;-82
2021/05/18 02:42:59;;;;;;;10.15;6.30;;;;;;;10.20;91.11;97916.71;4025758;85;21082;-82
2021/05/18 02:56:19;;;;;;;;;;;;;;;;;;;;;
2021/05/18 03:02:50;;;;;;;15.50;6.23;;;;;;;10.16;91.53;97929.05;4330121;77;21088;-82
2021/05/18 03:09:10;;;;;;;13.70;7.17;;;;;;;10.16;91.26;97926.91;4499892;78;21061;-82
2021/05/18 03:28:53;;;;;;;;;;;;;;;;;;;;;
2021/05/18 03:35:06;;;;;;;11.55;6.58;;;;;;;10.22;91.50;97971.80;4117531;85;21730;-82
2021/05/18 03:41:41;;;;;;;;;;;;;;;;;;;;;
2021/05/18 04:21:14;;;;;;;8.30;6.33;;;;;;;10.27;91.87;98014.58;4210096;82;21124;-82
2021/05/18 05:07:10;;;;;;;;;;;;;;;;;;;;;
2021/05/18 05:20:12;;;;;;;10.15;7.70;;;;;;;10.59;92.07;98034.37;4222128;83;21084;-82
2021/05/18 05:26:29;;;;;;;14.20;8.23;;;;;;;10.64;92.12;98035.34;4210063;83;21093;-82
2021/05/18 05:33:35;;;;;;;17.25;7.70;;;;;;;10.69;91.99;98039.03;4232549;81;21096;-82
2021/05/18 05:40:12;;;;;;;13.35;7.60;;;;;;;10.63;92.06;98048.81;4113056;85;21119;-82
2021/05/18 05:46:37;;;;;;;14.30;8.50;;;;;;;10.66;92.23;98051.36;4088190;85;30346;-82
2021/05/18 05:52:42;;;;;;;13.20;8.73;;;;;;;10.68;92.24;98051.75;4030002;86;21177;-82
2021/05/18 05:59:04;;;;;;;13.48;7.92;;;;;;;10.68;92.32;98045.67;4148273;83;21088;-82
2021/05/18 06:05:19;;;;;;;10.28;6.92;;;;;;;10.76;92.32;98055.98;4177191;83;21116;-83
2021/05/18 06:11:47;;;;;;;10.00;7.25;;;;;;;10.80;92.24;98064.98;4178425;84;21068;-81
2021/05/18 06:52:19;;;;;;;10.78;7.47;;;;;;;11.12;92.34;98099.81;4259782;81;55209;-81
2021/05/18 07:18:31;;;;;;;6.28;5.47;;;;;;;11.40;92.13;98113.35;3924211;89;21100;-83
2021/05/18 07:24:33;;;;;;;9.50;6.75;;;;;;;11.44;91.96;98111.38;4190629;83;21121;-82
2021/05/18 07:37:28;;;;;;;13.80;7.45;;;;;;;11.47;91.91;98105.09;4186274;84;21217;-82
2021/05/18 07:50:16;;;;;;;9.00;6.75;;;;;;;11.66;91.93;98127.13;3993393;88;21207;-81
2021/05/18 08:09:23;;;;;;;8.63;5.62;;;;;;;11.78;91.96;98143.88;4231084;82;21083;-81
2021/05/18 08:22:55;;;;;;;15.98;8.80;;;;;;;11.83;91.61;98132.48;4194048;83;21105;-81
2021/05/18 10:38:07;;;;;;;19.25;8.90;;;;;;;14.03;90.19;98228.70;4256678;81;21092;-83
2021/05/18 10:44:12;;;;;;;10.72;8.83;;;;;;;14.02;90.00;98235.42;4219322;79;21055;-83
2021/05/18 10:57:12;;;;;;;12.35;10.63;;;;;;;13.77;89.29;98241.08;4346100;80;21112;-83
2021/05/18 11:03:17;;;;;;;10.98;9.03;;;;;;;13.63;89.64;98242.64;4337361;79;21105;-83
2021/05/18 11:15:35;;;;;;;10.08;8.20;;;;;;;13.40;88.85;98249.42;4373675;79;22440;-83
2021/05/18 11:22:18;;;;;;;9.65;8.65;;;;;;;13.20;88.42;98258.86;4388797;79;21094;-83
2021/05/18 11:28:57;;;;;;;11.70;9.10;;;;;;;13.09;88.89;98266.44;4210849;82;21071;-83
2021/05/18 11:35:06;;;;;;;8.07;7.07;;;;;;;13.05;89.13;98258.84;4163384;83;21125;-83
2021/05/18 11:41:29;;;;;;;7.72;5.12;;;;;;;13.07;89.49;98255.09;4087332;84;21198;-83
2021/05/18 11:47:30;;;;;;;9.35;6.00;;;;;;;13.08;89.36;98256.64;4204956;82;22128;-83
2021/05/18 11:53:39;;;;;;;7.87;5.65;;;;;;;13.04;88.93;98255.91;4215852;82;21703;-84
2021/05/18 11:59:42;;;;;;;9.70;6.28;;;;;;;13.17;89.15;98258.30;4380981;79;21085;-84
2021/05/18 12:12:44;;;;;;;5.70;5.10;;;;;;;13.59;89.17;98265.30;4355805;79;21168;-85
2021/05/18 12:18:51;;;;;;;7.78;6.10;;;;;;;13.80;88.68;98265.00;4270572;81;21562;-84
2021/05/18 12:24:54;;;;;;;9.05;6.80;;;;;;;14.10;89.11;98256.73;4186906;82;21592;-85
2021/05/18 12:31:34;;;;;;;7.75;6.90;;;;;;;14.30;87.99;98256.25;4198307;82;21062;-85
2021/05/18 12:37:44;;;;;;;7.03;5.70;;;;;;;14.49;88.11;98255.56;4211248;82;21075;-85
2021/05/18 12:44:08;;;;;;;9.43;5.12;;;;;;;14.66;87.68;98257.86;4357203;80;21105;-85
2021/05/18 12:50:25;;;;;;;7.72;4.65;;;;;;;14.73;87.31;98256.34;4359406;79;21057;-84
2021/05/18 13:03:38;;;;;;;10.53;5.33;;;;;;;15.07;86.82;98267.93;4261247;81;21177;-85
2021/05/18 13:09:55;;;;;;;6.45;4.65;;;;;;;15.07;85.79;98268.72;4264555;82;21129;-84
2021/05/18 13:16:39;;;;;;;8.08;3.83;;;;;;;15.18;85.74;98267.14;4256344;81;22322;-83
2021/05/18 13:35:35;;;;;;;4.95;3.70;;;;;;;15.59;84.44;98252.38;4180052;83;21140;-84
2021/05/18 13:41:39;;;;;;;6.53;3.45;;;;;;;15.69;84.31;98259.05;4184802;84;21775;-84
2021/05/18 13:47:41;;;;;;;5.03;3.15;;;;;;;15.65;83.34;98267.22;4177912;84;21061;-84
2021/05/18 13:53:44;;;;;;;7.05;3.58;;;;;;;15.62;83.11;98269.45;4156753;83;21096;-84
2021/05/18 13:59:54;;;;;;;11.40;4.40;;;;;;;15.44;82.34;98271.80;4185035;83;21385;-84
2021/05/18 14:05:55;;;;;;;7.22;4.10;;;;;;;15.43;82.62;98264.12;4245679;83;21064;-83
2021/05/18 14:12:07;;;;;;;9.55;3.55;;;;;;;15.46;83.12;98272.92;4193439;83;21120;-84
2021/05/18 14:18:13;;;;;;;5.30;2.90;;;;;;;15.53;82.69;98275.52;4181167;83;21075;-84
2021/05/18 14:24:29;;;;;;;4.22;2.80;;;;;;;15.75;82.94;98275.10;4175663;83;21072;-84
2021/05/18 14:30:51;;;;;;;8.60;3.37;;;;;;;15.83;82.93;98270.41;4218714;83;21155;-84
2021/05/18 14:36:58;;;;;;;8.98;4.53;;;;;;;15.63;82.09;98261.34;4218350;82;21643;-85
2021/05/18 14:43:14;;;;;;;;;;;;;;;15.48;81.94;98260.09;4226655;83;21114;-84
2021/05/18 14:55:11;;;;;;;16.45;4.47;;;;;;;15.51;81.92;98259.23;4243989;83;21074;-84
2021/05/18 15:01:18;;;;;;;7.72;4.28;;;;;;;15.78;82.10;98256.31;4221663;83;21111;-84
2021/05/18 15:07:26;;;;;;;6.10;2.92;;;;;;;15.97;80.84;98261.02;4222848;82;21547;-84
2021/05/18 15:13:27;;;;;;;6.30;2.25;;;;;;;16.28;80.86;98251.23;4230950;83;21048;-83
2021/05/18 15:19:32;;;;;;;3.72;2.25;;;;;;;16.35;79.68;98272.56;4248981;82;21070;-84
2021/05/18 15:25:40;;;;;;;5.35;3.20;;;;;;;16.40;77.74;98278.17;4263769;81;21104;-83
2021/05/18 15:31:52;;;;;;;9.43;3.90;;;;;;;16.14;78.43;98259.84;4286514;82;21040;-84
2021/05/18 15:38:03;;;;;;;10.20;3.40;;;;;;;16.15;78.44;98265.53;4288044;82;21112;-82
2021/05/18 15:44:04;;;;;;;8.38;3.20;;;;;;;16.15;78.64;98276.58;4138016;84;21091;-84
2021/05/18 15:50:14;;;;;;;7.12;3.40;;;;;;;16.09;78.23;98274.16;4289657;81;21688;-84
2021/05/18 15:56:16;;;;;;;9.95;3.35;;;;;;;16.04;78.10;98275.45;4281121;82;21049;-84
2021/05/18 16:02:18;;;;;;;8.85;2.55;;;;;;;16.00;78.38;98270.62;4283571;81;21115;-82
2021/05/18 16:14:30;;;;;;;6.15;1.70;;;;;;;15.61;77.10;98275.56;4284799;82;21532;-83
2021/05/18 16:20:31;;;;;;;8.50;1.50;;;;;;;15.51;77.26;98285.44;4285222;82;21061;-82
2021/05/18 16:26:38;;;;;;;4.83;1.42;;;;;;;15.26;76.22;98303.81;4288529;81;21356;-83
2021/05/18 16:32:40;;;;;;;3.12;1.20;;;;;;;14.74;76.04;98312.40;4285302;82;21657;-84
2021/05/18 16:38:49;;;;;;;4.70;1.60;;;;;;;14.28;75.84;98318.44;4278777;82;21047;-84
2021/05/18 16:44:52;;;;;;;3.65;1.85;;;;;;;13.93;76.36;98321.83;4274448;82;21048;-83
2021/05/18 16:50:59;;;;;;;5.47;1.98;;;;;;;13.76;77.28;98326.17;4259788;82;21620;-85
2021/05/18 16:57:02;;;;;;;3.55;1.50;;;;;;;13.80;77.64;98336.52;4247797;82;21118;-84
2021/05/18 17:03:04;;;;;;;2.45;1.40;;;;;;;13.89;77.75;98349.97;4284450;82;21046;-84
2021/05/18 17:09:07;;;;;;;5.42;1.67;;;;;;;13.94;77.41;98355.02;4281457;81;21386;-82
2021/05/18 17:15:10;;;;;;;4.08;1.60;;;;;;;13.91;77.40;98357.23;4259220;82;21614;-83
2021/05/18 17:21:22;;;;;;;7.10;2.22;;;;;;;13.82;77.72;98355.58;4246308;82;21160;-84
2021/05/18 17:27:24;;;;;;;8.25;2.72;;;;;;;13.75;77.79;98357.63;4248673;82;21114;-83
2021/05/18 17:33:31;;;;;;;4.50;2.80;;;;;;;13.71;78.04;98365.13;4267171;82;21086;-83
2021/05/18 17:39:42;;;;;;;8.20;3.12;;;;;;;13.50;78.08;98361.25;4270715;81;21164;-84
2021/05/18 17:45:48;;;;;;;9.10;3.35;;;;;;;13.36;78.28;98375.91;4278421;82;21678;-84
2021/05/18 17:51:50;;;;;;;7.87;2.87;;;;;;;13.26;78.26;98373.27;4262401;82;21090;-84
2021/05/18 17:58:02;;;;;;;8.98;3.10;;;;;;;13.11;78.62;98377.34;4272134;82;21615;-84
2021/05/18 18:04:07;;;;;;;7.75;3.90;;;;;;;12.99;78.88;98373.67;4243745;82;21141;-84
2021/05/18 18:10:12;;;;;;;11.40;4.87;;;;;;;12.86;79.10;98387.11;4275783;82;21091;-84
2021/05/18 18:16:20;;;;;;;8.50;4.25;;;;;;;12.77;79.13;98384.05;4270803;82;22393;-85
2021/05/18 18:22:25;;;;;;;13.55;5.47;;;;;;;12.59;79.55;98386.91;4283462;82;21049;-85
2021/05/18 18:28:42;;;;;;;10.35;4.35;;;;;;;12.53;79.52;98395.97;4284213;82;21161;-85
2021/05/18 18:34:48;;;;;;;15.83;6.20;;;;;;;12.46;79.87;98400.94;4304675;81;21015;-84
2021/05/18 18:40:50;;;;;;;10.72;6.35;;;;;;;12.29;80.36;98400.42;4289158;82;21072;-85
2021/05/18 18:47:02;;;;;;;13.05;5.60;;;;;;;12.19;80.63;98417.73;4265020;82;21073;-84
2021/05/18 18:53:17;;;;;;;14.80;6.40;;;;;;;12.06;80.65;98423.46;4286476;82;21062;-84
2021/05/18 18:59:07;;;;;;;12.50;6.47;;;;;;;12.07;81.34;98427.00;4277377;81;21078;-84
2021/05/18 19:17:43;;;;;;;13.90;7.92;;;;;;;11.93;82.22;98445.64;4291218;82;21176;-84
2021/05/18 19:23:52;;;;;;;13.68;8.25;;;;;;;11.97;82.13;98450.55;4283933;81;22315;-84
2021/05/18 19:30:15;;;;;;;16.02;7.70;;;;;;;12.00;82.20;98458.55;4267828;81;21147;-84
2021/05/18 19:37:03;;;;;;;13.48;8.55;;;;;;;11.87;82.51;98454.09;4268034;81;21603;-84
2021/05/18 20:14:59;;;;;;;20.35;9.95;;;;;;;11.79;83.95;98460.00;4282356;81;21074;-84
2021/05/18 20:21:11;;;;;;;26.02;8.78;;;;;;;11.76;83.93;98462.16;4161080;81;10000167;-84
2021/05/18 20:27:26;;;;;;;15.85;8.88;;;;;;;11.69;84.04;98462.95;4281115;81;21099;-83
2021/05/18 20:40:15;;;;;;;16.17;8.63;;;;;;;11.65;84.25;98463.53;4100568;85;21080;-83
2021/05/18 20:46:27;;;;;;;15.93;9.28;;;;;;;11.48;84.23;98466.29;4260853;82;21087;-84
2021/05/18 20:52:37;;;;;;;16.45;9.65;;;;;;;11.43;84.60;98474.33;4247701;81;21039;-85
2021/05/18 20:58:38;;;;;;;18.82;9.95;;;;;;;11.37;84.61;98478.61;4273206;82;21082;-84
2021/05/18 21:04:42;;;;;;;16.82;9.75;;;;;;;11.30;84.93;98477.83;4269856;82;21039;-84
2021/05/18 21:16:59;;;;;;;20.68;10.05;;;;;;;11.26;85.00;98486.05;4203734;82;21043;-84
2021/05/18 21:23:07;;;;;;;15.95;10.05;;;;;;;11.27;85.00;98486.84;4104647;85;21103;-84
2021/05/18 21:29:11;;;;;;;13.83;8.90;;;;;;;11.21;85.10;98493.88;4276195;82;22156;-84
2021/05/18 21:35:22;;;;;;;17.82;8.53;;;;;;;11.22;85.14;98491.33;4250852;82;21086;-84
2021/05/18 21:41:24;;;;;;;15.10;8.33;;;;;;;11.24;85.27;98491.73;4105001;85;21690;-83
2021/05/18 21:47:33;;;;;;;16.95;10.13;;;;;;;11.23;85.35;98490.17;4273020;82;21191;-84
2021/05/18 21:53:42;;;;;;;15.93;10.00;;;;;;;11.13;85.40;98491.13;4104713;85;21124;-84
2021/05/18 21:59:44;;;;;;;22.10;10.43;;;;;;;11.03;85.29;98486.44;4271775;82;21042;-84
2021/05/18 22:05:50;;;;;;;17.32;11.03;;;;;;;10.99;85.53;98488.98;4275327;82;21101;-83
2021/05/18 22:12:10;;;;;;;18.15;11.18;;;;;;;10.96;85.44;98494.63;4253670;82;21669;-84
2021/05/18 22:31:12;;;;;;;21.12;12.07;;;;;;;10.73;85.50;98501.05;4276405;82;21669;-84
2021/05/18 22:37:15;;;;;;;15.63;11.35;;;;;;;10.69;85.98;98494.00;4104598;85;21044;-84
2021/05/18 22:43:18;;;;;;;15.58;10.93;;;;;;;10.60;85.90;98490.85;4272501;82;21067;-84
2021/05/18 22:49:23;;;;;;;16.07;9.50;;;;;;;10.43;85.75;98487.48;4276131;82;21062;-84
2021/05/18 22:55:39;;;;;;;17.35;9.98;;;;;;;10.29;86.25;98483.32;4272479;82;21063;-83
2021/05/18 23:01:48;;;;;;;14.95;9.70;;;;;;;10.26;86.12;98479.39;4226616;83;21676;-85
2021/05/18 23:08:08;;;;;;;15.00;9.05;;;;;;;10.28;86.63;98483.10;4202125;83;21411;-84
2021/05/18 23:14:36;;;;;;;18.05;8.63;;;;;;;10.31;86.53;98479.02;4201662;83;21086;-84
2021/05/18 23:20:41;;;;;;;21.25;10.13;;;;;;;10.33;86.81;98478.63;4200873;83;21088;-84
2021/05/18 23:26:42;;;;;;;16.27;10.43;;;;;;;10.29;86.59;98485.45;4200772;83;21075;-85
2021/05/18 23:32:48;;;;;;;15.85;9.20;;;;;;;10.20;86.74;98495.17;4149710;85;21113;-83
2021/05/18 23:38:51;;;;;;;16.23;9.13;;;;;;;10.12;86.65;98490.27;4144559;84;21107;-85
2021/05/18 23:44:54;;;;;;;17.30;9.45;;;;;;;10.15;87.11;98494.20;4246554;82;21107;-84
2021/05/18 23:50:59;;;;;;;14.80;8.38;;;;;;;10.21;87.11;98489.32;4232505;82;21019;-85
2021/05/18 23:57:04;;;;;;;15.38;8.15;;;;;;;10.18;86.81;98492.83;4222971;82;21642;-84
